Time;durP1;ratioP1;P1;durP2;ratioP2;P2;SDS_P1;SDS_P2;PMS_P1;PMS_P2;Temp;Humidity;BMP_temperature;BMP_pressure;BME280_temperature;BME280_humidity;BME280_pressure;Samples;Min_cycle;Max_cycle;Signal;HPM_P1;HPM_P2
2023/10/13 00:01:11;;;;;;;2.72;1.95;;;;;;;;;;6216939;23;20018;-71
2023/10/13 00:03:39;;;;;;;2.38;1.38;;;;;;;;;;6191445;23;20016;-71
2023/10/13 00:06:06;;;;;;;2.40;1.50;;;;;;;;;;6242666;23;20038;-71
2023/10/13 00:08:32;;;;;;;1.55;1.40;;;;;;;;;;6242333;23;20020;-72
2023/10/13 00:11:00;;;;;;;2.17;1.95;;;;;;;;;;6215821;23;20012;-72
2023/10/13 00:13:26;;;;;;;3.63;1.50;;;;;;;;;;6242623;23;20574;-71
2023/10/13 00:15:58;;;;;;;1.75;1.52;;;;;;;;;;6242129;23;20036;-73
2023/10/13 00:18:50;;;;;;;5.45;2.40;;;;;;;;;;6215887;23;20392;-71
2023/10/13 00:21:19;;;;;;;2.08;1.48;;;;;;;;;;6242054;23;20115;-71
2023/10/13 00:23:55;;;;;;;;;;;;;;;;;;6216241;23;20478;-72
2023/10/13 00:26:28;;;;;;;2.65;1.30;;;;;;;;;;6243189;23;19912;-70
2023/10/13 00:31:36;;;;;;;5.65;1.65;;;;;;;;;;6241510;23;20024;-72
2023/10/13 00:34:18;;;;;;;2.88;1.30;;;;;;;;;;6242635;23;20020;-71
2023/10/13 00:39:29;;;;;;;2.47;1.60;;;;;;;;;;6242637;23;20019;-71
2023/10/13 00:42:06;;;;;;;0.98;0.98;;;;;;;;;;6242117;23;20087;-72
2023/10/13 00:44:42;;;;;;;4.30;1.60;;;;;;;;;;6215666;23;20038;-72
2023/10/13 00:47:09;;;;;;;2.97;1.40;;;;;;;;;;6242371;23;20044;-71
2023/10/13 00:49:39;;;;;;;1.58;1.38;;;;;;;;;;6242203;23;20012;-71
2023/10/13 00:52:10;;;;;;;2.45;1.58;;;;;;;;;;6242983;23;20018;-70
2023/10/13 00:54:37;;;;;;;1.98;1.52;;;;;;;;;;6216836;23;20477;-71
2023/10/13 00:57:26;;;;;;;1.77;1.25;;;;;;;;;;6243604;23;20035;-69
2023/10/13 00:59:55;;;;;;;1.42;1.33;;;;;;;;;;6243521;23;20015;-71
2023/10/13 01:05:09;;;;;;;4.93;1.38;;;;;;;;;;6242578;23;20016;-70
2023/10/13 01:07:37;;;;;;;4.50;1.60;;;;;;;;;;6241839;23;20460;-71
2023/10/13 01:10:04;;;;;;;1.85;1.05;;;;;;;;;;6215888;23;20051;-71
2023/10/13 01:12:31;;;;;;;4.80;1.63;;;;;;;;;;6215902;23;20468;-70
2023/10/13 01:14:57;;;;;;;3.60;1.30;;;;;;;;;;6242007;23;20042;-72
2023/10/13 01:17:23;;;;;;;2.35;1.63;;;;;;;;;;6215494;23;20456;-72
2023/10/13 01:19:49;;;;;;;1.67;1.42;;;;;;;;;;6241681;23;20012;-71
2023/10/13 01:22:15;;;;;;;2.72;1.38;;;;;;;;;;6242282;23;20066;-72
2023/10/13 01:24:41;;;;;;;4.93;2.20;;;;;;;;;;6241763;23;20015;-70
2023/10/13 01:27:20;;;;;;;2.45;2.25;;;;;;;;;;6241765;23;20019;-72
2023/10/13 01:29:51;;;;;;;3.80;2.20;;;;;;;;;;6214583;23;20017;-72
2023/10/13 01:32:18;;;;;;;5.30;2.30;;;;;;;;;;6215041;23;20019;-74
2023/10/13 01:34:48;;;;;;;2.15;1.85;;;;;;;;;;6241793;23;20012;-74
2023/10/13 01:37:16;;;;;;;6.70;2.90;;;;;;;;;;6214908;23;20027;-73
2023/10/13 01:39:42;;;;;;;7.00;2.40;;;;;;;;;;6241624;23;20016;-72
2023/10/13 01:42:08;;;;;;;2.88;1.98;;;;;;;;;;6215497;23;20008;-72
2023/10/13 01:44:34;;;;;;;3.75;2.10;;;;;;;;;;6215635;23;20016;-72
2023/10/13 01:47:06;;;;;;;6.28;2.40;;;;;;;;;;6241640;23;20039;-70
2023/10/13 01:49:50;;;;;;;7.55;2.08;;;;;;;;;;6190372;23;20035;-71
2023/10/13 01:52:16;;;;;;;3.63;1.80;;;;;;;;;;6189886;23;20011;-73
2023/10/13 01:54:44;;;;;;;4.72;1.80;;;;;;;;;;6215100;23;20016;-70
2023/10/13 01:57:17;;;;;;;2.90;1.63;;;;;;;;;;6215173;23;20031;-71
2023/10/13 01:59:43;;;;;;;1.98;1.65;;;;;;;;;;6214777;23;20018;-71
2023/10/13 02:02:12;;;;;;;2.75;1.38;;;;;;;;;;6189673;23;20012;-72
2023/10/13 02:04:43;;;;;;;2.35;1.55;;;;;;;;;;6215081;23;20023;-72
2023/10/13 02:07:14;;;;;;;;;;;;;;;;;;6215654;23;20008;-71
2023/10/13 02:09:42;;;;;;;3.47;1.60;;;;;;;;;;6215109;23;19911;-71
2023/10/13 02:12:09;;;;;;;1.52;1.30;;;;;;;;;;6241946;23;20016;-71
2023/10/13 02:14:38;;;;;;;3.25;1.58;;;;;;;;;;6216380;23;20028;-71
2023/10/13 02:17:16;;;;;;;3.10;1.50;;;;;;;;;;6217162;23;20019;-69
2023/10/13 02:19:46;;;;;;;1.92;1.45;;;;;;;;;;6219894;23;20084;-71
2023/10/13 02:22:32;;;;;;;1.30;1.20;;;;;;;;;;6221327;23;20342;-71
2023/10/13 02:25:05;;;;;;;1.70;1.60;;;;;;;;;;6243519;23;20099;-72
2023/10/13 02:27:40;;;;;;;3.40;1.60;;;;;;;;;;6217165;23;20471;-71
2023/10/13 02:30:12;;;;;;;1.48;1.38;;;;;;;;;;6217340;23;20020;-71
2023/10/13 02:32:43;;;;;;;2.97;1.70;;;;;;;;;;6243046;23;20475;-71
2023/10/13 02:35:15;;;;;;;4.70;1.70;;;;;;;;;;6243197;23;20069;-71
2023/10/13 02:37:43;;;;;;;2.30;1.77;;;;;;;;;;6216574;23;20020;-72
2023/10/13 02:40:11;;;;;;;4.55;2.00;;;;;;;;;;6243701;23;20012;-72
2023/10/13 02:42:38;;;;;;;2.03;1.17;;;;;;;;;;6243744;23;20063;-71
2023/10/13 02:45:05;;;;;;;2.72;1.38;;;;;;;;;;6216870;23;20440;-72
2023/10/13 02:47:31;;;;;;;6.25;1.92;;;;;;;;;;6243518;23;20066;-70
2023/10/13 02:50:11;;;;;;;5.93;1.98;;;;;;;;;;6191224;23;20016;-72
2023/10/13 02:52:41;;;;;;;2.45;1.95;;;;;;;;;;6243464;23;20410;-71
2023/10/13 02:55:14;;;;;;;3.93;1.57;;;;;;;;;;6243544;23;20436;-72
2023/10/13 02:57:40;;;;;;;1.40;1.30;;;;;;;;;;6243252;23;20012;-72
2023/10/13 03:00:15;;;;;;;1.90;1.63;;;;;;;;;;6243349;23;20480;-70
2023/10/13 03:02:58;;;;;;;4.07;1.42;;;;;;;;;;6216159;23;20016;-72
2023/10/13 03:05:24;;;;;;;3.72;2.05;;;;;;;;;;6195249;23;20019;-71
2023/10/13 03:07:50;;;;;;;7.50;1.98;;;;;;;;;;6243089;23;20023;-72
2023/10/13 03:10:19;;;;;;;1.35;1.17;;;;;;;;;;6243407;23;20020;-72
2023/10/13 03:12:48;;;;;;;4.63;2.13;;;;;;;;;;6242827;23;20074;-70
2023/10/13 03:17:43;;;;;;;4.85;1.90;;;;;;;;;;6243201;23;20364;-71
2023/10/13 03:20:15;;;;;;;3.47;1.73;;;;;;;;;;6192923;23;20019;-70
2023/10/13 03:22:44;;;;;;;;;;;;;;;;;;6216981;23;20103;-71
2023/10/13 03:25:23;;;;;;;4.10;1.85;;;;;;;;;;6243240;23;20298;-71
2023/10/13 03:30:17;;;;;;;2.47;1.60;;;;;;;;;;6216576;23;20016;-72
2023/10/13 03:32:48;;;;;;;5.05;1.70;;;;;;;;;;6242488;23;20095;-72
2023/10/13 03:35:23;;;;;;;5.93;1.90;;;;;;;;;;6217299;23;20015;-72
2023/10/13 03:37:49;;;;;;;3.20;1.92;;;;;;;;;;6242818;23;20042;-72
2023/10/13 03:40:36;;;;;;;3.78;1.60;;;;;;;;;;6242935;23;20008;-72
2023/10/13 03:43:08;;;;;;;2.70;1.60;;;;;;;;;;6242250;23;20016;-71
2023/10/13 03:45:39;;;;;;;2.15;1.80;;;;;;;;;;6216191;23;20012;-73
2023/10/13 03:51:38;;;;;;;2.53;1.52;;;;;;;;;;6242721;23;20023;-72
2023/10/13 03:53:54;;;;;;;4.40;1.77;;;;;;;;;;6226581;23;20039;-71
2023/10/13 03:56:28;;;;;;;4.38;1.88;;;;;;;;;;6243029;23;20016;-71
2023/10/13 03:58:57;;;;;;;2.85;1.55;;;;;;;;;;6242518;23;20012;-72
2023/10/13 04:01:31;;;;;;;4.68;2.10;;;;;;;;;;6242657;23;20008;-71
2023/10/13 04:04:04;;;;;;;2.00;1.85;;;;;;;;;;6242349;23;20337;-72
2023/10/13 04:17:22;;;;;;;4.63;1.88;;;;;;;;;;6215767;23;20020;-72
2023/10/13 04:30:57;;;;;;;3.33;2.10;;;;;;;;;;6242510;23;20019;-72
2023/10/13 04:33:35;;;;;;;2.15;1.58;;;;;;;;;;6242803;23;20463;-71
2023/10/13 04:38:59;;;;;;;3.85;1.80;;;;;;;;;;6242199;23;20012;-71
2023/10/13 04:57:33;;;;;;;4.30;2.00;;;;;;;;;;6218467;23;20008;-72
2023/10/13 05:46:35;;;;;;;5.72;1.63;;;;;;;;;;6242579;23;20012;-77
2023/10/13 06:30:56;;;;;;;4.72;1.70;;;;;;;;;;6212783;23;20015;-70
2023/10/13 06:33:28;;;;;;;3.13;2.00;;;;;;;;;;6213302;23;20020;-69
2023/10/13 06:35:57;;;;;;;2.67;2.03;;;;;;;;;;6239607;23;20636;-70
2023/10/13 06:38:24;;;;;;;2.90;2.10;;;;;;;;;;6239210;23;20016;-71
2023/10/13 06:40:53;;;;;;;5.28;2.30;;;;;;;;;;6240601;23;20008;-70
2023/10/13 06:43:21;;;;;;;1.42;1.33;;;;;;;;;;6240241;23;20016;-69
2023/10/13 06:46:00;;;;;;;6.03;1.80;;;;;;;;;;6241535;23;20417;-70
2023/10/13 06:48:26;;;;;;;2.95;1.40;;;;;;;;;;6241712;23;20082;-70
2023/10/13 06:50:52;;;;;;;2.47;1.60;;;;;;;;;;6240501;23;20012;-71
2023/10/13 06:53:21;;;;;;;5.53;2.15;;;;;;;;;;6241538;23;20016;-71
2023/10/13 06:55:48;;;;;;;4.30;1.42;;;;;;;;;;6241486;23;20008;-71
2023/10/13 06:58:14;;;;;;;2.22;1.67;;;;;;;;;;6241132;23;20049;-70
2023/10/13 07:00:41;;;;;;;4.88;1.67;;;;;;;;;;6215877;23;20020;-71
2023/10/13 07:03:08;;;;;;;4.07;1.48;;;;;;;;;;6243190;23;20020;-70
2023/10/13 07:05:38;;;;;;;2.08;1.55;;;;;;;;;;6216959;23;20087;-71
2023/10/13 07:08:08;;;;;;;1.40;1.30;;;;;;;;;;6216605;23;20020;-70
2023/10/13 07:10:48;;;;;;;3.53;1.83;;;;;;;;;;6216940;23;20042;-70
2023/10/13 07:13:14;;;;;;;2.47;1.30;;;;;;;;;;6216390;23;20103;-70
2023/10/13 07:15:47;;;;;;;2.13;1.60;;;;;;;;;;6216783;23;20051;-70
2023/10/13 07:18:23;;;;;;;1.45;1.35;;;;;;;;;;6215880;23;20341;-69
2023/10/13 07:20:48;;;;;;;2.08;1.02;;;;;;;;;;6243182;23;20019;-70
2023/10/13 07:23:17;;;;;;;2.78;1.27;;;;;;;;;;6242944;23;20641;-70
2023/10/13 07:25:44;;;;;;;2.03;1.35;;;;;;;;;;6217060;23;20070;-70
2023/10/13 07:28:10;;;;;;;1.40;1.17;;;;;;;;;;6216145;23;20027;-70
2023/10/13 07:30:42;;;;;;;3.97;1.45;;;;;;;;;;6191152;23;20008;-76
2023/10/13 07:33:13;;;;;;;1.30;1.20;;;;;;;;;;6215973;23;20147;-76
2023/10/13 07:35:39;;;;;;;1.00;1.00;;;;;;;;;;6243379;23;20079;-76
2023/10/13 07:38:07;;;;;;;1.30;0.98;;;;;;;;;;6191135;23;20020;-76
2023/10/13 07:43:05;;;;;;;3.15;1.23;;;;;;;;;;6242730;23;20016;-75
2023/10/13 07:45:37;;;;;;;0.82;0.80;;;;;;;;;;6216266;23;20027;-77
2023/10/13 07:48:12;;;;;;;3.70;1.25;;;;;;;;;;6242548;23;20051;-74
2023/10/13 07:50:39;;;;;;;1.10;1.00;;;;;;;;;;6217009;23;20016;-73
2023/10/13 07:53:18;;;;;;;2.63;1.20;;;;;;;;;;6215992;23;20012;-73
2023/10/13 07:55:46;;;;;;;6.65;1.35;;;;;;;;;;6242719;23;20078;-73
2023/10/13 07:58:13;;;;;;;2.10;1.30;;;;;;;;;;6242252;23;20387;-73
2023/10/13 08:05:58;;;;;;;1.85;1.50;;;;;;;;;;6242633;23;20467;-73
2023/10/13 08:08:43;;;;;;;3.67;1.50;;;;;;;;;;6242755;23;20020;-73
2023/10/13 08:14:41;;;;;;;0.90;0.90;;;;;;;;;;6242696;23;20024;-74
2023/10/13 08:17:00;;;;;;;1.67;1.57;;;;;;;;;;6216873;23;20012;-75
2023/10/13 08:19:27;;;;;;;1.58;1.40;;;;;;;;;;6215353;23;20361;-74
2023/10/13 08:22:14;;;;;;;2.45;1.17;;;;;;;;;;6242491;23;20031;-74
2023/10/13 08:27:35;;;;;;;4.47;1.60;;;;;;;;;;6241872;23;20018;-74
2023/10/13 08:48:07;;;;;;;1.98;1.20;;;;;;;;;;6210998;23;20016;-73
2023/10/13 08:50:48;;;;;;;1.55;1.27;;;;;;;;;;6212835;23;20024;-74
2023/10/13 08:53:28;;;;;;;1.27;1.20;;;;;;;;;;6187809;23;20048;-73
2023/10/13 09:04:38;;;;;;;1.20;1.02;;;;;;;;;;6184463;23;20096;-75
2023/10/13 09:12:13;;;;;;;1.00;0.90;;;;;;;;;;6211026;23;20396;-74
2023/10/13 09:14:44;;;;;;;5.25;1.27;;;;;;;;;;6209719;23;20013;-75
2023/10/13 09:17:34;;;;;;;1.30;1.20;;;;;;;;;;6209741;23;20330;-74
2023/10/13 09:25:34;;;;;;;2.70;1.10;;;;;;;;;;6209180;23;20021;-76
2023/10/13 09:28:10;;;;;;;1.40;1.38;;;;;;;;;;6209893;23;20016;-74
2023/10/13 09:30:46;;;;;;;8.68;1.27;;;;;;;;;;6186669;23;20081;-75
2023/10/13 09:33:20;;;;;;;6.05;1.20;;;;;;;;;;6185413;23;20021;-75
2023/10/13 09:35:49;;;;;;;1.10;1.10;;;;;;;;;;6210900;23;20016;-75
2023/10/13 09:38:16;;;;;;;1.75;1.20;;;;;;;;;;6160858;23;20039;-75
2023/10/13 09:40:49;;;;;;;2.00;1.13;;;;;;;;;;6211324;23;20012;-73
2023/10/13 09:43:19;;;;;;;1.33;1.10;;;;;;;;;;6214788;23;20088;-75
2023/10/13 09:48:45;;;;;;;2.63;1.00;;;;;;;;;;6222681;23;20028;-77
2023/10/13 09:51:12;;;;;;;1.13;1.02;;;;;;;;;;6220836;23;20008;-75
2023/10/13 09:53:38;;;;;;;1.08;0.98;;;;;;;;;;6215574;23;20019;-76
2023/10/13 09:56:19;;;;;;;2.25;0.95;;;;;;;;;;6212153;23;20013;-75
2023/10/13 09:59:08;;;;;;;2.70;1.50;;;;;;;;;;6210680;23;20492;-76
2023/10/13 10:01:37;;;;;;;1.27;0.85;;;;;;;;;;6212211;23;20597;-75
2023/10/13 10:04:13;;;;;;;1.17;1.02;;;;;;;;;;6211174;23;20015;-76
2023/10/13 10:06:39;;;;;;;4.05;1.10;;;;;;;;;;6211714;23;20040;-75
2023/10/13 10:09:11;;;;;;;3.28;1.70;;;;;;;;;;6209600;23;20094;-76
2023/10/13 10:11:45;;;;;;;1.17;1.10;;;;;;;;;;6210154;23;20009;-76
2023/10/13 10:14:19;;;;;;;1.25;1.10;;;;;;;;;;6211646;23;20421;-75
2023/10/13 10:16:59;;;;;;;2.03;1.77;;;;;;;;;;6211541;23;20009;-75
2023/10/13 10:19:27;;;;;;;1.75;1.17;;;;;;;;;;6211112;23;20456;-75
2023/10/13 10:22:24;;;;;;;1.40;1.20;;;;;;;;;;6160286;23;20021;-76
2023/10/13 10:24:59;;;;;;;1.95;1.20;;;;;;;;;;6209653;23;20099;-75
2023/10/13 10:27:29;;;;;;;1.02;1.02;;;;;;;;;;6209579;23;20013;-75
2023/10/13 10:29:55;;;;;;;1.02;1.00;;;;;;;;;;6209460;23;20028;-75
2023/10/13 10:32:21;;;;;;;3.35;1.40;;;;;;;;;;6230481;23;20024;-75
2023/10/13 10:34:47;;;;;;;2.08;1.35;;;;;;;;;;6190015;23;20028;-75
2023/10/13 10:37:13;;;;;;;1.92;1.40;;;;;;;;;;6191574;23;20098;-75
2023/10/13 10:39:45;;;;;;;3.00;1.45;;;;;;;;;;6217037;23;20012;-74
2023/10/13 10:42:29;;;;;;;2.17;1.10;;;;;;;;;;6216579;23;20363;-75
2023/10/13 10:44:55;;;;;;;2.67;1.25;;;;;;;;;;6191410;23;20095;-74
2023/10/13 10:47:30;;;;;;;1.38;1.25;;;;;;;;;;6191632;23;20407;-74
2023/10/13 10:49:58;;;;;;;1.52;1.30;;;;;;;;;;6191693;23;20613;-75
2023/10/13 10:52:24;;;;;;;1.38;1.25;;;;;;;;;;6216436;23;20031;-74
2023/10/13 10:54:59;;;;;;;4.20;1.30;;;;;;;;;;6191488;23;20015;-75
2023/10/13 10:57:28;;;;;;;1.92;1.30;;;;;;;;;;6243332;23;20043;-75
2023/10/13 11:00:14;;;;;;;1.42;1.30;;;;;;;;;;6216782;23;20590;-75
2023/10/13 11:02:41;;;;;;;1.25;1.08;;;;;;;;;;6243733;23;20019;-75
2023/10/13 11:05:09;;;;;;;1.48;1.27;;;;;;;;;;6243422;23;20011;-74
2023/10/13 11:07:35;;;;;;;1.58;1.48;;;;;;;;;;6243565;23;20449;-76
2023/10/13 11:10:17;;;;;;;1.35;1.25;;;;;;;;;;6216643;23;20023;-77
2023/10/13 11:12:58;;;;;;;2.35;1.30;;;;;;;;;;6191680;23;20066;-75
2023/10/13 11:15:33;;;;;;;1.58;1.25;;;;;;;;;;6216536;23;20019;-74
2023/10/13 11:17:59;;;;;;;1.65;1.55;;;;;;;;;;6216373;23;20522;-75
2023/10/13 11:20:33;;;;;;;1.30;1.23;;;;;;;;;;6243031;23;20012;-74
2023/10/13 11:23:00;;;;;;;2.85;1.40;;;;;;;;;;6243354;23;20433;-75
2023/10/13 11:25:35;;;;;;;1.20;1.20;;;;;;;;;;6243140;23;20091;-74
2023/10/13 11:28:20;;;;;;;2.17;1.23;;;;;;;;;;6243237;23;20099;-74
2023/10/13 11:30:49;;;;;;;0.80;0.80;;;;;;;;;;6242958;23;20012;-75
2023/10/13 11:33:23;;;;;;;1.58;1.20;;;;;;;;;;6243148;23;20016;-75
2023/10/13 11:38:25;;;;;;;1.80;1.50;;;;;;;;;;6216708;23;20043;-75
2023/10/13 11:41:18;;;;;;;1.77;1.67;;;;;;;;;;6191265;23;20023;-75
2023/10/13 11:51:51;;;;;;;1.70;1.23;;;;;;;;;;6216464;23;20008;-75
2023/10/13 11:54:17;;;;;;;1.10;1.10;;;;;;;;;;6242802;23;20087;-75
2023/10/13 11:56:44;;;;;;;1.10;1.00;;;;;;;;;;6242914;23;20012;-75
2023/10/13 11:59:24;;;;;;;3.22;1.20;;;;;;;;;;6215688;23;20012;-76
2023/10/13 12:07:20;;;;;;;1.30;1.20;;;;;;;;;;6216234;23;20364;-75
2023/10/13 12:12:23;;;;;;;1.75;1.20;;;;;;;;;;6216245;23;20095;-74
2023/10/13 12:14:55;;;;;;;1.25;1.08;;;;;;;;;;6242860;23;20019;-75
2023/10/13 12:17:31;;;;;;;1.90;1.40;;;;;;;;;;6190917;23;20012;-75
2023/10/13 12:19:58;;;;;;;1.10;1.00;;;;;;;;;;6216102;23;20015;-75
2023/10/13 12:22:42;;;;;;;0.88;0.88;;;;;;;;;;6190904;23;20062;-74
2023/10/13 12:27:57;;;;;;;3.08;1.13;;;;;;;;;;6242652;23;20027;-75
2023/10/13 12:30:36;;;;;;;2.50;1.30;;;;;;;;;;6215413;23;20020;-74
2023/10/13 12:33:11;;;;;;;3.65;1.58;;;;;;;;;;6242395;23;20030;-74
2023/10/13 12:48:55;;;;;;;1.63;1.33;;;;;;;;;;6219815;23;20047;-75
2023/10/13 12:52:20;;;;;;;2.72;1.00;;;;;;;;;;6192357;23;20015;-76
2023/10/13 12:54:47;;;;;;;1.65;1.55;;;;;;;;;;6216403;23;20027;-75
2023/10/13 12:57:14;;;;;;;1.35;1.25;;;;;;;;;;6218444;23;20012;-75
2023/10/13 12:59:40;;;;;;;0.80;0.80;;;;;;;;;;6217520;23;20008;-73
2023/10/13 13:02:07;;;;;;;1.17;1.08;;;;;;;;;;6192536;23;20043;-75
2023/10/13 13:04:36;;;;;;;5.85;1.88;;;;;;;;;;6216106;23;20098;-75
2023/10/13 13:07:04;;;;;;;4.68;1.13;;;;;;;;;;6216295;23;20011;-75
2023/10/13 13:09:30;;;;;;;1.42;1.10;;;;;;;;;;6190549;23;20099;-75
2023/10/13 13:11:57;;;;;;;3.17;1.77;;;;;;;;;;6242364;23;20514;-75
2023/10/13 13:14:28;;;;;;;1.85;1.42;;;;;;;;;;6215282;23;20098;-73
2023/10/13 13:17:04;;;;;;;4.28;1.88;;;;;;;;;;6191800;23;20444;-75
2023/10/13 13:19:36;;;;;;;2.53;1.70;;;;;;;;;;6242002;23;20010;-76
2023/10/13 13:22:03;;;;;;;2.10;1.30;;;;;;;;;;6215668;23;20023;-75
2023/10/13 13:24:29;;;;;;;1.55;1.35;;;;;;;;;;6215309;23;20403;-75
2023/10/13 13:26:56;;;;;;;1.17;1.17;;;;;;;;;;6190895;23;20016;-75
2023/10/13 13:29:22;;;;;;;1.58;1.27;;;;;;;;;;6215379;23;20020;-75
2023/10/13 13:31:49;;;;;;;2.15;1.40;;;;;;;;;;6216798;23;20074;-75
2023/10/13 13:34:15;;;;;;;3.63;1.70;;;;;;;;;;6215904;23;20012;-75
2023/10/13 13:36:44;;;;;;;9.18;1.88;;;;;;;;;;6216015;23;20022;-75
2023/10/13 13:39:11;;;;;;;1.55;1.45;;;;;;;;;;6242664;23;20012;-75
2023/10/13 13:41:37;;;;;;;1.50;1.38;;;;;;;;;;6215930;23;20015;-74
2023/10/13 13:44:13;;;;;;;2.30;1.40;;;;;;;;;;6223505;23;20016;-73
2023/10/13 13:46:42;;;;;;;1.90;1.15;;;;;;;;;;6252441;23;20031;-75
2023/10/13 13:49:17;;;;;;;2.42;1.63;;;;;;;;;;6224717;23;20523;-75
2023/10/13 13:51:51;;;;;;;2.63;1.02;;;;;;;;;;6243174;23;20083;-73
2023/10/13 13:54:18;;;;;;;1.88;1.58;;;;;;;;;;6215442;23;20012;-75
2023/10/13 13:56:44;;;;;;;3.08;1.83;;;;;;;;;;6242284;23;20015;-74
2023/10/13 13:59:15;;;;;;;2.13;1.92;;;;;;;;;;6242186;23;20015;-75
2023/10/13 14:01:44;;;;;;;;;;;;;;;;;;6216003;23;20023;-74
2023/10/13 14:04:10;;;;;;;1.88;1.70;;;;;;;;;;6215449;23;19923;-75
2023/10/13 14:06:37;;;;;;;1.98;1.70;;;;;;;;;;6214909;23;20043;-75
2023/10/13 14:09:14;;;;;;;1.80;1.70;;;;;;;;;;6241875;23;20456;-74
2023/10/13 17:11:40;;;;;;;4.20;3.50;;;;;;;;;;6240754;23;20074;-73
2023/10/13 17:14:07;;;;;;;8.00;3.97;;;;;;;;;;6242616;23;20625;-70
2023/10/13 17:16:33;;;;;;;5.13;3.28;;;;;;;;;;6241141;23;20130;-70
2023/10/13 17:19:01;;;;;;;4.78;2.88;;;;;;;;;;6239836;23;20016;-69
2023/10/13 17:21:33;;;;;;;4.22;3.08;;;;;;;;;;6214766;23;20027;-70
2023/10/13 17:24:01;;;;;;;6.80;2.75;;;;;;;;;;6241548;23;20035;-69
2023/10/13 17:26:27;;;;;;;7.88;3.28;;;;;;;;;;6241300;23;20036;-68
2023/10/13 17:29:09;;;;;;;10.98;3.60;;;;;;;;;;6241174;23;20368;-69
2023/10/13 17:31:34;;;;;;;;;;;;;;;;;;6240535;23;20012;-69
2023/10/13 17:34:02;;;;;;;4.80;2.95;;;;;;;;;;6239616;23;19986;-69
2023/10/13 17:36:29;;;;;;;8.63;3.60;;;;;;;;;;6189697;23;20022;-70
2023/10/13 17:38:55;;;;;;;4.90;3.30;;;;;;;;;;6241026;23;20035;-69
2023/10/13 17:41:23;;;;;;;4.55;3.00;;;;;;;;;;6241407;23;20022;-69
2023/10/13 17:43:49;;;;;;;9.57;3.40;;;;;;;;;;6214015;23;20486;-70
2023/10/13 17:46:15;;;;;;;8.48;3.30;;;;;;;;;;6214260;23;20089;-71
2023/10/13 17:48:43;;;;;;;5.68;3.33;;;;;;;;;;6213092;23;20027;-70
2023/10/13 17:51:13;;;;;;;9.77;3.53;;;;;;;;;;6241040;23;20012;-70
2023/10/13 17:53:43;;;;;;;8.90;3.22;;;;;;;;;;6213577;23;20525;-70
2023/10/13 17:56:19;;;;;;;6.97;3.38;;;;;;;;;;6241245;23;20008;-71
2023/10/13 17:58:45;;;;;;;6.65;3.25;;;;;;;;;;6214040;23;20016;-70
2023/10/13 18:01:19;;;;;;;4.85;3.20;;;;;;;;;;6240666;23;20012;-68
2023/10/13 18:03:49;;;;;;;4.05;3.45;;;;;;;;;;6240824;23;20659;-68
2023/10/13 18:06:20;;;;;;;4.70;3.08;;;;;;;;;;6214279;23;20012;-67
2023/10/13 18:08:49;;;;;;;4.95;3.55;;;;;;;;;;6240588;23;20066;-67
2023/10/13 18:11:16;;;;;;;4.80;3.35;;;;;;;;;;6213509;23;20087;-67
2023/10/13 18:13:45;;;;;;;8.60;3.58;;;;;;;;;;6240727;23;20018;-68
2023/10/13 18:16:12;;;;;;;8.18;4.15;;;;;;;;;;6240941;23;20016;-69
2023/10/13 18:18:39;;;;;;;8.38;4.68;;;;;;;;;;6213783;23;20350;-68
2023/10/13 18:21:07;;;;;;;9.55;4.85;;;;;;;;;;6214156;23;20004;-68
2023/10/13 18:23:39;;;;;;;16.55;4.50;;;;;;;;;;6240558;23;20043;-68
2023/10/13 18:26:11;;;;;;;6.97;4.32;;;;;;;;;;6240738;23;20049;-69
2023/10/13 18:28:38;;;;;;;9.95;4.32;;;;;;;;;;6240795;23;20515;-71
2023/10/13 18:31:05;;;;;;;14.77;5.47;;;;;;;;;;6213769;23;20008;-68
2023/10/13 18:33:34;;;;;;;9.45;5.90;;;;;;;;;;6214621;23;20012;-67
2023/10/13 18:36:29;;;;;;;11.98;6.05;;;;;;;;;;6240690;23;20032;-68
2023/10/13 18:38:56;;;;;;;8.45;5.70;;;;;;;;;;6214576;23;20023;-67
2023/10/13 18:41:22;;;;;;;11.15;5.30;;;;;;;;;;6241394;23;20036;-66
2023/10/13 18:43:49;;;;;;;13.15;5.30;;;;;;;;;;6240873;23;20016;-68
2023/10/13 18:46:21;;;;;;;11.32;4.40;;;;;;;;;;6241221;23;20127;-69
2023/10/13 18:48:47;;;;;;;16.60;4.95;;;;;;;;;;6240628;23;20024;-71
2023/10/13 18:51:14;;;;;;;11.50;5.45;;;;;;;;;;6240908;23;20453;-68
2023/10/13 18:53:40;;;;;;;17.35;5.13;;;;;;;;;;6214052;23;20087;-67
2023/10/13 18:56:10;;;;;;;12.07;5.78;;;;;;;;;;6241674;23;20124;-67
2023/10/13 18:58:40;;;;;;;9.48;5.35;;;;;;;;;;6242904;23;20460;-69
2023/10/13 19:01:11;;;;;;;13.13;5.75;;;;;;;;;;6243347;23;20008;-68
2023/10/13 19:03:37;;;;;;;;;;;;;;;;;;6243702;23;20087;-68
2023/10/13 19:06:04;;;;;;;9.52;5.20;;;;;;;;;;6243006;23;19938;-68
2023/10/13 19:08:33;;;;;;;9.93;5.28;;;;;;;;;;6243050;23;20028;-69
2023/10/13 19:11:03;;;;;;;10.90;6.15;;;;;;;;;;6242632;23;20024;-69
2023/10/13 19:13:29;;;;;;;11.00;5.50;;;;;;;;;;6242957;23;20016;-70
2023/10/13 19:15:59;;;;;;;13.98;5.43;;;;;;;;;;6242835;23;20023;-69
2023/10/13 19:18:29;;;;;;;20.25;5.68;;;;;;;;;;6242997;23;20015;-68
2023/10/13 19:20:56;;;;;;;12.43;5.07;;;;;;;;;;6191501;23;20352;-68
2023/10/13 19:23:26;;;;;;;16.17;4.95;;;;;;;;;;6244826;23;20012;-69
2023/10/13 19:25:55;;;;;;;14.15;4.97;;;;;;;;;;6243856;23;20146;-68
2023/10/13 19:28:22;;;;;;;8.02;4.50;;;;;;;;;;6216515;23;20054;-67
2023/10/13 19:30:49;;;;;;;8.23;4.95;;;;;;;;;;6242305;23;20016;-68
2023/10/13 19:33:15;;;;;;;9.27;5.75;;;;;;;;;;6215645;23;20009;-68
2023/10/13 19:35:41;;;;;;;20.13;6.05;;;;;;;;;;6242426;23;20022;-69
2023/10/13 19:38:07;;;;;;;10.88;5.07;;;;;;;;;;6215710;23;20039;-70
2023/10/13 19:40:35;;;;;;;7.75;5.82;;;;;;;;;;6242535;23;20032;-69
2023/10/13 19:43:11;;;;;;;8.73;5.32;;;;;;;;;;6242875;23;20016;-68
2023/10/13 19:45:38;;;;;;;22.02;6.47;;;;;;;;;;6215106;23;20472;-69
2023/10/13 19:48:08;;;;;;;8.05;4.63;;;;;;;;;;6215380;23;20044;-69
2023/10/13 19:50:37;;;;;;;7.35;5.53;;;;;;;;;;6241947;23;20015;-70
2023/10/13 19:53:12;;;;;;;13.98;6.10;;;;;;;;;;6242516;23;20012;-70
2023/10/13 19:55:41;;;;;;;10.10;5.85;;;;;;;;;;6241916;23;20019;-70
2023/10/13 19:58:08;;;;;;;10.55;5.30;;;;;;;;;;6215466;23;20074;-70
2023/10/13 20:00:34;;;;;;;13.70;6.25;;;;;;;;;;6241810;23;20012;-70
2023/10/13 20:03:00;;;;;;;13.13;5.97;;;;;;;;;;6242181;23;20448;-68
2023/10/13 20:05:26;;;;;;;14.43;5.35;;;;;;;;;;6242249;23;20027;-69
2023/10/13 20:07:53;;;;;;;11.60;4.70;;;;;;;;;;6241617;23;20016;-68
2023/10/13 20:10:20;;;;;;;9.43;5.03;;;;;;;;;;6242447;23;20073;-67
2023/10/13 20:12:49;;;;;;;9.63;4.95;;;;;;;;;;6242276;23;20019;-68
2023/10/13 20:15:15;;;;;;;7.88;5.28;;;;;;;;;;6215800;23;20012;-68
2023/10/13 20:17:44;;;;;;;12.80;5.80;;;;;;;;;;6215677;23;20012;-68
2023/10/13 20:20:12;;;;;;;7.10;4.32;;;;;;;;;;6215844;23;20019;-67
2023/10/13 20:22:41;;;;;;;11.05;4.40;;;;;;;;;;6243039;23;20445;-68
2023/10/13 20:25:07;;;;;;;10.25;4.53;;;;;;;;;;6216541;23;20016;-69
2023/10/13 20:27:33;;;;;;;7.85;4.78;;;;;;;;;;6242554;23;20468;-71
2023/10/13 20:30:08;;;;;;;8.50;4.57;;;;;;;;;;6242441;23;20456;-69
2023/10/13 20:32:34;;;;;;;20.42;5.13;;;;;;;;;;6242119;23;20016;-71
2023/10/13 20:35:02;;;;;;;7.65;4.50;;;;;;;;;;6215728;23;20110;-69
2023/10/13 20:37:30;;;;;;;11.43;4.60;;;;;;;;;;6242249;23;20008;-72
2023/10/13 20:39:59;;;;;;;12.85;5.20;;;;;;;;;;6215633;23;20066;-70
2023/10/13 20:42:25;;;;;;;7.57;4.38;;;;;;;;;;6242352;23;20016;-70
2023/10/13 20:44:52;;;;;;;8.27;4.57;;;;;;;;;;6241614;23;20016;-70
2023/10/13 20:47:19;;;;;;;6.75;4.30;;;;;;;;;;6165763;23;20213;-70
2023/10/13 20:49:46;;;;;;;7.53;4.63;;;;;;;;;;6214787;23;20385;-70
2023/10/13 20:52:15;;;;;;;6.13;4.07;;;;;;;;;;6241816;23;20595;-69
2023/10/13 20:54:41;;;;;;;7.53;4.20;;;;;;;;;;6241859;23;20011;-70
2023/10/13 20:57:08;;;;;;;11.73;4.25;;;;;;;;;;6241887;23;20111;-71
2023/10/13 20:59:39;;;;;;;7.18;3.72;;;;;;;;;;6241750;23;20030;-71
2023/10/13 21:02:08;;;;;;;5.75;4.38;;;;;;;;;;6216451;23;20012;-70
2023/10/13 21:04:36;;;;;;;7.55;4.10;;;;;;;;;;6241626;23;20015;-71
2023/10/13 21:07:04;;;;;;;6.40;4.22;;;;;;;;;;6242160;23;20093;-67
2023/10/13 21:09:31;;;;;;;10.60;4.68;;;;;;;;;;6240807;23;20099;-69
2023/10/13 21:12:01;;;;;;;13.10;5.70;;;;;;;;;;6240567;23;20020;-68
2023/10/13 21:14:27;;;;;;;8.23;5.55;;;;;;;;;;6216431;23;20018;-67
2023/10/13 21:16:54;;;;;;;9.27;5.47;;;;;;;;;;6190095;23;20012;-67
2023/10/13 21:19:22;;;;;;;7.60;4.80;;;;;;;;;;6241874;23;20011;-68
2023/10/13 21:21:49;;;;;;;6.90;4.45;;;;;;;;;;6241233;23;20018;-69
2023/10/13 21:24:16;;;;;;;5.40;3.90;;;;;;;;;;6241770;23;20095;-68
2023/10/13 21:26:42;;;;;;;7.25;3.70;;;;;;;;;;6241595;23;20074;-69
2023/10/13 21:29:08;;;;;;;6.40;4.10;;;;;;;;;;6215261;23;20020;-68
2023/10/13 21:31:38;;;;;;;6.03;4.05;;;;;;;;;;6241483;23;20040;-69
2023/10/13 21:34:09;;;;;;;4.50;4.00;;;;;;;;;;6241179;23;20540;-69
2023/10/13 21:36:38;;;;;;;5.07;3.65;;;;;;;;;;6241922;23;20012;-70
2023/10/13 21:39:04;;;;;;;8.88;3.72;;;;;;;;;;6216345;23;20039;-69
2023/10/13 21:41:36;;;;;;;6.75;3.95;;;;;;;;;;6242301;23;20012;-68
2023/10/13 21:44:03;;;;;;;12.60;3.88;;;;;;;;;;6242086;23;20364;-68
2023/10/13 21:46:29;;;;;;;14.50;4.60;;;;;;;;;;6242060;23;20008;-68
2023/10/13 21:49:04;;;;;;;7.53;3.85;;;;;;;;;;6215495;23;20024;-68
2023/10/13 21:51:31;;;;;;;11.07;4.28;;;;;;;;;;6242377;23;20091;-68
2023/10/13 21:53:57;;;;;;;6.35;3.88;;;;;;;;;;6241777;23;20096;-68
2023/10/13 21:56:30;;;;;;;7.68;3.95;;;;;;;;;;6241877;23;20008;-68